Terminal Aerodrome Forecast
Issued by NWS Springfield, MO

Home | Current Version | Previous Version | Text Only | Print | Product List | Glossary On
Versions: 1 2 3 4 5 6 7 8 9 10 11 12 13 14 15 16 17 18 19
000
FTUS43 KSGF 220402 AAA
TAFSGF
TAF AMD
KSGF 220402Z 2204/2224 19015G27KT 2SM +RA VCTS BKN010 OVC018CB
     FM220500 19012G22KT 5SM -RA VCTS BKN025 OVC040CB
     FM220800 20012G19KT P6SM SCT200
     FM221700 24022G33KT P6SM OVC025=

USA.gov is the U.S. government's official web portal to all federal, state and local government web resources and services.